IGO6545 VOBL-VAAH
Flight info
| Callsign | IGO6545 |
|---|---|
| Flight time | N/A |
| Altitude | 38000 |
| Route | OPAMO7B OPAMO DCT RIKBU DCT VIKAS DCT BEKUT DCT BBB/N0452F390 DCT ISRIS DCT APANO APANO1A |
| Aircraft | A320/M-SDE3FGHIRWY/LB1 |
Departure
| Time | 2026-04-30 13:37 |
|---|---|
| Airport | Kempegowda International Airport Bengaluru (VOBL) |
Arrival
| Time | N/A |
|---|---|
| Airport | Sardar Vallabh Patel International Airport (VAAH) |
| Time | Latitude | Longitude | Altitude | Speed | Heading |
|---|---|---|---|---|---|
| 2026-04-30 13:11 | 13.20168 | 77.70985 | 3011 ft | 0 kts | 180° |
| 2026-04-30 13:22 | 13.20199 | 77.70985 | 3017 ft | 2 kts | 180° |
| 2026-04-30 13:22 | 13.20216 | 77.70985 | 3017 ft | 2 kts | 172° |
| 2026-04-30 13:22 | 13.20245 | 77.70971 | 3011 ft | 2 kts | 98° |
| 2026-04-30 13:23 | 13.20246 | 77.70967 | 3011 ft | 0 kts | 90° |
| 2026-04-30 13:27 | 13.20246 | 77.70968 | 3011 ft | 1 kts | 91° |
| 2026-04-30 13:28 | 13.20239 | 77.71039 | 3011 ft | 6 kts | 93° |
| 2026-04-30 13:28 | 13.20239 | 77.71142 | 3011 ft | 9 kts | 89° |
| 2026-04-30 13:28 | 13.20240 | 77.71208 | 3011 ft | 9 kts | 90° |
| 2026-04-30 13:29 | 13.20290 | 77.71275 | 3011 ft | 8 kts | 1° |
| 2026-04-30 13:29 | 13.20408 | 77.71277 | 3011 ft | 9 kts | 0° |
| 2026-04-30 13:30 | 13.20522 | 77.71387 | 3011 ft | 9 kts | 92° |
| 2026-04-30 13:31 | 13.20522 | 77.71519 | 3011 ft | 11 kts | 89° |
| 2026-04-30 13:31 | 13.20520 | 77.71787 | 3012 ft | 13 kts | 91° |
| 2026-04-30 13:32 | 13.20518 | 77.71991 | 3012 ft | 15 kts | 91° |
| 2026-04-30 13:32 | 13.20531 | 77.72187 | 3017 ft | 13 kts | 51° |
| 2026-04-30 13:33 | 13.20567 | 77.72201 | 3012 ft | 0 kts | 4° |
| 2026-04-30 13:35 | 13.20570 | 77.72201 | 3012 ft | 1 kts | 4° |
| 2026-04-30 13:35 | 13.20635 | 77.72202 | 3012 ft | 7 kts | 355° |
| 2026-04-30 13:36 | 13.20691 | 77.72112 | 3012 ft | 10 kts | 272° |
| 2026-04-30 13:36 | 13.20695 | 77.72000 | 3011 ft | 37 kts | 272° |
| 2026-04-30 13:36 | 13.20704 | 77.70570 | 3011 ft | 152 kts | 271° |
| 2026-04-30 13:37 | 13.20720 | 77.69363 | 3175 ft | 180 kts | 271° |
| 2026-04-30 13:37 | 13.20934 | 77.66752 | 4360 ft | 192 kts | 296° |
| 2026-04-30 13:38 | 13.22640 | 77.64250 | 5110 ft | 235 kts | 308° |
| 2026-04-30 13:38 | 13.23646 | 77.62851 | 5613 ft | 250 kts | 307° |
| 2026-04-30 13:38 | 13.25723 | 77.59713 | 6720 ft | 276 kts | 304° |
| 2026-04-30 13:39 | 13.27753 | 77.56367 | 7005 ft | 276 kts | 303° |
| 2026-04-30 13:39 | 13.30225 | 77.53362 | 7812 ft | 281 kts | 331° |
| 2026-04-30 13:40 | 13.32048 | 77.52608 | 8580 ft | 285 kts | 342° |
| 2026-04-30 13:40 | 13.33943 | 77.51966 | 9346 ft | 289 kts | 342° |
| 2026-04-30 13:40 | 13.35867 | 77.51315 | 10072 ft | 294 kts | 342° |
| 2026-04-30 13:40 | 13.37882 | 77.50634 | 10341 ft | 316 kts | 343° |
| 2026-04-30 13:41 | 13.40037 | 77.49902 | 10650 ft | 333 kts | 342° |
| 2026-04-30 13:41 | 13.42261 | 77.49142 | 11214 ft | 339 kts | 343° |
| 2026-04-30 13:41 | 13.44503 | 77.48373 | 11913 ft | 341 kts | 342° |
| 2026-04-30 13:41 | 13.46761 | 77.47601 | 12578 ft | 343 kts | 342° |
| 2026-04-30 13:42 | 13.49034 | 77.46825 | 13241 ft | 346 kts | 343° |
| 2026-04-30 13:42 | 13.51325 | 77.46042 | 13857 ft | 349 kts | 342° |
| 2026-04-30 13:42 | 13.55976 | 77.44462 | 14947 ft | 355 kts | 342° |
| 2026-04-30 13:43 | 13.58327 | 77.43664 | 15502 ft | 358 kts | 342° |
| 2026-04-30 13:43 | 13.60695 | 77.42858 | 16036 ft | 360 kts | 342° |
| 2026-04-30 13:43 | 13.63084 | 77.42043 | 16602 ft | 363 kts | 342° |
| 2026-04-30 13:43 | 13.65486 | 77.41220 | 17157 ft | 365 kts | 342° |
| 2026-04-30 13:44 | 13.67907 | 77.40390 | 17724 ft | 368 kts | 342° |
| 2026-04-30 13:44 | 13.70342 | 77.39557 | 18258 ft | 371 kts | 342° |
| 2026-04-30 13:44 | 13.72800 | 77.38718 | 18717 ft | 374 kts | 342° |
| 2026-04-30 13:44 | 13.75281 | 77.37871 | 19138 ft | 377 kts | 342° |
| 2026-04-30 13:45 | 13.80296 | 77.36149 | 20015 ft | 384 kts | 341° |
| 2026-04-30 13:45 | 13.82846 | 77.35276 | 20455 ft | 387 kts | 341° |
| 2026-04-30 13:45 | 13.85410 | 77.34401 | 20886 ft | 391 kts | 341° |
| 2026-04-30 13:46 | 13.88005 | 77.33518 | 21328 ft | 394 kts | 341° |
| 2026-04-30 13:46 | 13.90611 | 77.32629 | 21754 ft | 396 kts | 340° |
| 2026-04-30 13:46 | 13.92349 | 77.32034 | 22039 ft | 398 kts | 340° |
| 2026-04-30 13:46 | 13.94985 | 77.31130 | 22454 ft | 402 kts | 340° |
| 2026-04-30 13:47 | 13.98554 | 77.29906 | 23004 ft | 407 kts | 340° |
| 2026-04-30 13:47 | 14.00339 | 77.29295 | 23266 ft | 409 kts | 340° |
| 2026-04-30 13:47 | 14.03050 | 77.28367 | 23609 ft | 412 kts | 340° |
| 2026-04-30 13:47 | 14.06673 | 77.27127 | 24065 ft | 415 kts | 340° |
| 2026-04-30 13:48 | 14.08528 | 77.26492 | 24306 ft | 417 kts | 340° |
| 2026-04-30 13:48 | 14.11281 | 77.25546 | 24661 ft | 419 kts | 340° |
| 2026-04-30 13:48 | 14.14052 | 77.24594 | 25020 ft | 420 kts | 340° |
| 2026-04-30 13:48 | 14.16837 | 77.23641 | 25354 ft | 422 kts | 340° |
| 2026-04-30 13:49 | 14.19628 | 77.22689 | 25721 ft | 424 kts | 340° |
| 2026-04-30 13:49 | 14.22434 | 77.21730 | 26085 ft | 425 kts | 340° |
| 2026-04-30 13:49 | 14.25242 | 77.20766 | 26456 ft | 427 kts | 340° |
| 2026-04-30 13:49 | 14.28069 | 77.19794 | 26800 ft | 428 kts | 340° |
| 2026-04-30 13:50 | 14.30899 | 77.18819 | 27110 ft | 430 kts | 340° |
| 2026-04-30 13:50 | 14.36600 | 77.16857 | 27736 ft | 434 kts | 341° |
| 2026-04-30 13:50 | 14.39476 | 77.15870 | 28053 ft | 436 kts | 341° |
| 2026-04-30 13:51 | 14.42359 | 77.14880 | 28364 ft | 438 kts | 341° |
| 2026-04-30 13:51 | 14.45262 | 77.13882 | 28681 ft | 440 kts | 341° |
| 2026-04-30 13:51 | 14.48169 | 77.12884 | 29004 ft | 442 kts | 341° |
| 2026-04-30 13:51 | 14.51098 | 77.11878 | 29334 ft | 444 kts | 341° |
| 2026-04-30 13:52 | 14.54041 | 77.10867 | 29665 ft | 446 kts | 341° |
| 2026-04-30 13:52 | 14.56908 | 77.09640 | 29956 ft | 448 kts | 332° |
| 2026-04-30 13:52 | 14.59543 | 77.07915 | 30215 ft | 450 kts | 322° |
| 2026-04-30 13:52 | 14.61864 | 77.05738 | 30472 ft | 452 kts | 313° |
| 2026-04-30 13:53 | 14.63879 | 77.03235 | 30744 ft | 454 kts | 309° |
| 2026-04-30 13:53 | 14.65868 | 77.00701 | 31000 ft | 456 kts | 310° |
| 2026-04-30 13:53 | 14.67840 | 76.98195 | 31260 ft | 457 kts | 310° |
| 2026-04-30 13:53 | 14.69849 | 76.95644 | 31637 ft | 456 kts | 310° |
| 2026-04-30 13:54 | 14.71849 | 76.93102 | 32030 ft | 455 kts | 310° |
| 2026-04-30 13:54 | 14.73839 | 76.90569 | 32420 ft | 454 kts | 310° |
| 2026-04-30 13:54 | 14.75827 | 76.88037 | 32822 ft | 453 kts | 310° |
| 2026-04-30 13:54 | 14.77812 | 76.85508 | 33207 ft | 452 kts | 310° |
| 2026-04-30 13:55 | 14.79793 | 76.82986 | 33583 ft | 452 kts | 310° |
| 2026-04-30 13:55 | 14.81779 | 76.80460 | 33949 ft | 452 kts | 310° |
| 2026-04-30 13:55 | 14.83759 | 76.77939 | 34288 ft | 451 kts | 310° |
| 2026-04-30 13:55 | 14.85729 | 76.75426 | 34657 ft | 450 kts | 310° |
| 2026-04-30 13:56 | 14.87696 | 76.72916 | 34994 ft | 449 kts | 310° |
| 2026-04-30 13:56 | 14.89662 | 76.70405 | 35346 ft | 448 kts | 310° |
| 2026-04-30 13:56 | 14.91612 | 76.67910 | 35700 ft | 446 kts | 310° |
| 2026-04-30 13:56 | 14.93562 | 76.65416 | 36049 ft | 445 kts | 310° |
| 2026-04-30 13:57 | 14.95506 | 76.62930 | 36396 ft | 444 kts | 310° |
| 2026-04-30 13:57 | 14.97443 | 76.60454 | 36734 ft | 442 kts | 310° |
| 2026-04-30 13:57 | 14.99378 | 76.57981 | 37059 ft | 441 kts | 310° |
| 2026-04-30 13:57 | 15.01307 | 76.55517 | 37385 ft | 440 kts | 310° |
| 2026-04-30 13:58 | 15.03228 | 76.53058 | 37738 ft | 439 kts | 310° |
| 2026-04-30 13:58 | 15.06891 | 76.48372 | 37873 ft | 440 kts | 310° |
| 2026-04-30 13:59 | 15.10744 | 76.43444 | 37862 ft | 441 kts | 310° |
| 2026-04-30 13:59 | 15.14598 | 76.38505 | 37863 ft | 441 kts | 310° |
| 2026-04-30 14:00 | 15.18452 | 76.33564 | 37862 ft | 441 kts | 310° |
| 2026-04-30 14:00 | 15.24225 | 76.26149 | 37876 ft | 441 kts | 310° |
| 2026-04-30 14:01 | 15.28075 | 76.21209 | 37887 ft | 440 kts | 310° |
| 2026-04-30 14:01 | 15.31915 | 76.16273 | 37886 ft | 440 kts | 310° |
| 2026-04-30 14:02 | 15.35745 | 76.11335 | 37879 ft | 440 kts | 310° |
| 2026-04-30 14:02 | 15.39580 | 76.06397 | 37880 ft | 440 kts | 310° |
| 2026-04-30 14:03 | 15.43418 | 76.01456 | 37881 ft | 440 kts | 310° |
| 2026-04-30 14:03 | 15.47259 | 75.96516 | 37880 ft | 440 kts | 310° |
| 2026-04-30 14:04 | 15.51102 | 75.91572 | 37888 ft | 440 kts | 310° |
| 2026-04-30 14:04 | 15.54933 | 75.86622 | 37896 ft | 440 kts | 310° |
| 2026-04-30 14:05 | 15.58764 | 75.81669 | 37896 ft | 440 kts | 310° |
| 2026-04-30 14:05 | 15.62566 | 75.76750 | 37892 ft | 440 kts | 310° |
| 2026-04-30 14:06 | 15.68293 | 75.69332 | 37892 ft | 439 kts | 310° |
| 2026-04-30 14:07 | 15.74037 | 75.61907 | 37897 ft | 440 kts | 310° |
| 2026-04-30 14:08 | 15.79766 | 75.54483 | 37899 ft | 439 kts | 310° |
| 2026-04-30 14:08 | 15.85503 | 75.47054 | 37914 ft | 439 kts | 310° |
| 2026-04-30 14:09 | 15.89312 | 75.42103 | 37902 ft | 439 kts | 310° |
| 2026-04-30 14:10 | 15.95015 | 75.34680 | 37923 ft | 438 kts | 310° |
| 2026-04-30 14:10 | 15.98815 | 75.29743 | 37919 ft | 437 kts | 310° |
| 2026-04-30 14:11 | 16.02604 | 75.24816 | 37905 ft | 437 kts | 310° |
| 2026-04-30 14:11 | 16.06394 | 75.19880 | 37921 ft | 436 kts | 310° |
| 2026-04-30 14:12 | 16.10173 | 75.14950 | 37913 ft | 436 kts | 310° |
| 2026-04-30 14:12 | 16.13978 | 75.09986 | 37910 ft | 437 kts | 310° |
| 2026-04-30 14:13 | 16.17770 | 75.05046 | 37926 ft | 436 kts | 310° |
| 2026-04-30 14:13 | 16.21555 | 75.00108 | 37921 ft | 436 kts | 310° |
| 2026-04-30 14:14 | 16.25339 | 74.95169 | 37914 ft | 437 kts | 309° |
| 2026-04-30 14:14 | 16.29126 | 74.90216 | 37910 ft | 437 kts | 309° |
| 2026-04-30 14:15 | 16.32915 | 74.85256 | 37913 ft | 438 kts | 310° |
| 2026-04-30 14:15 | 16.36702 | 74.80298 | 37927 ft | 437 kts | 310° |
| 2026-04-30 14:16 | 16.40482 | 74.75348 | 37935 ft | 437 kts | 310° |
| 2026-04-30 14:16 | 16.44262 | 74.70392 | 37932 ft | 437 kts | 310° |
| 2026-04-30 14:17 | 16.48038 | 74.65439 | 37938 ft | 437 kts | 309° |
| 2026-04-30 14:17 | 16.51905 | 74.60568 | 37953 ft | 436 kts | 313° |
| 2026-04-30 14:18 | 16.56013 | 74.55935 | 37952 ft | 435 kts | 314° |
| 2026-04-30 14:18 | 16.62225 | 74.49030 | 37955 ft | 435 kts | 314° |
| 2026-04-30 14:19 | 16.68326 | 74.42016 | 37951 ft | 435 kts | 313° |
| 2026-04-30 14:20 | 16.72393 | 74.37334 | 37948 ft | 436 kts | 313° |
| 2026-04-30 14:20 | 16.78514 | 74.30313 | 37942 ft | 436 kts | 313° |
| 2026-04-30 14:21 | 16.82598 | 74.25620 | 37948 ft | 437 kts | 313° |
| 2026-04-30 14:22 | 16.88729 | 74.18572 | 37954 ft | 437 kts | 313° |
| 2026-04-30 14:22 | 16.94856 | 74.11519 | 37957 ft | 437 kts | 313° |
| 2026-04-30 14:23 | 17.03003 | 74.02135 | 37959 ft | 437 kts | 313° |
| 2026-04-30 14:24 | 17.09120 | 73.95064 | 37959 ft | 437 kts | 313° |
| 2026-04-30 14:25 | 17.17296 | 73.85646 | 37962 ft | 437 kts | 313° |
| 2026-04-30 14:26 | 17.23405 | 73.78577 | 37965 ft | 436 kts | 313° |
| 2026-04-30 14:27 | 17.29504 | 73.71517 | 37956 ft | 436 kts | 313° |
| 2026-04-30 14:27 | 17.33570 | 73.66809 | 37954 ft | 436 kts | 313° |
| 2026-04-30 14:28 | 17.39675 | 73.59727 | 37921 ft | 438 kts | 313° |
| 2026-04-30 14:28 | 17.43752 | 73.54995 | 37926 ft | 438 kts | 313° |
| 2026-04-30 14:29 | 17.51229 | 73.46305 | 37918 ft | 439 kts | 313° |
| 2026-04-30 14:31 | 17.61435 | 73.34431 | 37913 ft | 439 kts | 313° |
| 2026-04-30 14:31 | 17.67557 | 73.27291 | 37905 ft | 439 kts | 312° |
| 2026-04-30 14:32 | 17.72026 | 73.22967 | 37890 ft | 438 kts | 327° |
| 2026-04-30 14:32 | 17.74712 | 73.21454 | 37890 ft | 438 kts | 337° |
| 2026-04-30 14:33 | 17.80575 | 73.19720 | 37889 ft | 439 kts | 346° |
| 2026-04-30 14:33 | 17.89496 | 73.17499 | 37891 ft | 440 kts | 346° |
| 2026-04-30 14:34 | 17.95457 | 73.16001 | 37893 ft | 440 kts | 346° |
| 2026-04-30 14:34 | 18.01417 | 73.14500 | 37894 ft | 440 kts | 346° |
| 2026-04-30 14:35 | 18.10360 | 73.12263 | 37894 ft | 440 kts | 346° |
| 2026-04-30 14:36 | 18.16316 | 73.10765 | 37896 ft | 441 kts | 346° |
| 2026-04-30 14:36 | 18.22275 | 73.09261 | 37899 ft | 441 kts | 346° |
| 2026-04-30 14:37 | 18.28236 | 73.07753 | 37888 ft | 441 kts | 346° |
| 2026-04-30 14:37 | 18.34203 | 73.06257 | 37889 ft | 441 kts | 346° |
| 2026-04-30 14:38 | 18.40166 | 73.04759 | 37896 ft | 441 kts | 346° |
| 2026-04-30 14:38 | 18.46128 | 73.03252 | 37894 ft | 441 kts | 346° |
| 2026-04-30 14:39 | 18.52054 | 73.01761 | 37887 ft | 441 kts | 346° |
| 2026-04-30 14:39 | 18.58018 | 73.00262 | 37888 ft | 441 kts | 346° |
| 2026-04-30 14:40 | 18.66969 | 72.97993 | 37895 ft | 441 kts | 345° |
| 2026-04-30 14:40 | 18.72931 | 72.96478 | 37892 ft | 441 kts | 345° |
| 2026-04-30 14:41 | 18.78890 | 72.94965 | 37868 ft | 441 kts | 345° |
| 2026-04-30 14:41 | 18.84856 | 72.93455 | 37865 ft | 441 kts | 345° |
| 2026-04-30 14:42 | 18.90819 | 72.91953 | 37860 ft | 441 kts | 345° |
| 2026-04-30 14:42 | 18.96792 | 72.90438 | 37861 ft | 441 kts | 345° |
| 2026-04-30 14:43 | 19.02763 | 72.88922 | 37879 ft | 442 kts | 345° |
| 2026-04-30 14:43 | 19.08798 | 72.87597 | 37878 ft | 443 kts | 354° |
| 2026-04-30 14:44 | 19.14965 | 72.87688 | 37878 ft | 445 kts | 1° |
| 2026-04-30 14:44 | 19.21154 | 72.87957 | 37876 ft | 445 kts | 0° |
| 2026-04-30 14:45 | 19.27339 | 72.88222 | 37862 ft | 445 kts | 0° |
| 2026-04-30 14:45 | 19.33525 | 72.88483 | 37868 ft | 445 kts | 0° |
| 2026-04-30 14:46 | 19.39703 | 72.88752 | 37875 ft | 444 kts | 0° |
| 2026-04-30 14:46 | 19.45879 | 72.89021 | 37874 ft | 444 kts | 0° |
| 2026-04-30 14:47 | 19.52060 | 72.89286 | 37881 ft | 444 kts | 0° |
| 2026-04-30 14:47 | 19.58226 | 72.89550 | 37882 ft | 444 kts | 0° |
| 2026-04-30 14:48 | 19.64406 | 72.89813 | 37894 ft | 444 kts | 0° |
| 2026-04-30 14:48 | 19.70563 | 72.90069 | 37892 ft | 443 kts | 0° |
| 2026-04-30 14:49 | 19.76718 | 72.90338 | 37889 ft | 442 kts | 0° |
| 2026-04-30 14:49 | 19.82850 | 72.90606 | 37892 ft | 441 kts | 0° |
| 2026-04-30 14:50 | 19.92045 | 72.91006 | 37891 ft | 440 kts | 0° |
| 2026-04-30 14:51 | 20.01220 | 72.91409 | 37897 ft | 440 kts | 360° |
| 2026-04-30 14:52 | 20.10393 | 72.91799 | 37890 ft | 439 kts | 360° |
| 2026-04-30 14:52 | 20.19553 | 72.92192 | 37882 ft | 439 kts | 360° |
| 2026-04-30 14:53 | 20.28704 | 72.92596 | 37877 ft | 439 kts | 360° |
| 2026-04-30 14:54 | 20.40900 | 72.93127 | 37876 ft | 439 kts | 360° |
| 2026-04-30 14:55 | 20.50044 | 72.93517 | 37869 ft | 439 kts | 360° |
| 2026-04-30 14:56 | 20.62239 | 72.94050 | 37869 ft | 438 kts | 359° |
| 2026-04-30 14:57 | 20.71374 | 72.94444 | 37857 ft | 438 kts | 359° |
| 2026-04-30 14:58 | 20.83565 | 72.94986 | 37847 ft | 438 kts | 359° |
| 2026-04-30 14:58 | 20.92679 | 72.95382 | 37133 ft | 436 kts | 359° |
| 2026-04-30 14:59 | 20.98742 | 72.95647 | 35965 ft | 436 kts | 359° |
| 2026-04-30 15:00 | 21.07834 | 72.96049 | 34446 ft | 432 kts | 359° |
| 2026-04-30 15:00 | 21.13798 | 72.96317 | 33558 ft | 425 kts | 359° |
| 2026-04-30 15:01 | 21.19661 | 72.96577 | 32658 ft | 417 kts | 359° |
| 2026-04-30 15:01 | 21.21577 | 72.96662 | 32361 ft | 415 kts | 359° |
| 2026-04-30 15:01 | 21.28229 | 72.96952 | 31354 ft | 405 kts | 359° |
| 2026-04-30 15:02 | 21.30996 | 72.97075 | 30937 ft | 401 kts | 359° |
| 2026-04-30 15:02 | 21.33769 | 72.97198 | 30511 ft | 397 kts | 359° |
| 2026-04-30 15:03 | 21.41930 | 72.97552 | 29206 ft | 386 kts | 359° |
| 2026-04-30 15:03 | 21.47242 | 72.97791 | 28302 ft | 378 kts | 359° |
| 2026-04-30 15:04 | 21.52452 | 72.98024 | 27450 ft | 371 kts | 359° |
| 2026-04-30 15:04 | 21.60039 | 72.97801 | 26266 ft | 356 kts | 343° |
| 2026-04-30 15:05 | 21.67119 | 72.95713 | 25067 ft | 348 kts | 343° |
| 2026-04-30 15:06 | 21.71753 | 72.94362 | 24288 ft | 342 kts | 343° |
| 2026-04-30 15:06 | 21.76291 | 72.93035 | 23566 ft | 335 kts | 343° |
| 2026-04-30 15:07 | 21.80747 | 72.91724 | 22677 ft | 330 kts | 343° |
| 2026-04-30 15:07 | 21.85185 | 72.90415 | 21488 ft | 332 kts | 343° |
| 2026-04-30 15:08 | 21.89583 | 72.89125 | 20551 ft | 324 kts | 342° |
| 2026-04-30 15:08 | 21.96048 | 72.87233 | 19248 ft | 319 kts | 341° |
| 2026-04-30 15:09 | 22.00310 | 72.85974 | 18413 ft | 316 kts | 341° |
| 2026-04-30 15:09 | 22.04527 | 72.84729 | 17563 ft | 314 kts | 341° |
| 2026-04-30 15:10 | 22.08731 | 72.83497 | 16643 ft | 313 kts | 342° |
| 2026-04-30 15:11 | 22.16427 | 72.81226 | 15066 ft | 311 kts | 342° |
| 2026-04-30 15:11 | 22.20595 | 72.79994 | 14250 ft | 311 kts | 342° |
| 2026-04-30 15:12 | 22.27501 | 72.77957 | 12970 ft | 308 kts | 343° |
| 2026-04-30 15:13 | 22.30931 | 72.76970 | 12527 ft | 307 kts | 343° |
| 2026-04-30 15:14 | 22.39036 | 72.74653 | 11396 ft | 295 kts | 343° |
| 2026-04-30 15:14 | 22.44971 | 72.72944 | 10383 ft | 290 kts | 343° |
| 2026-04-30 15:16 | 22.54635 | 72.70150 | 8255 ft | 278 kts | 342° |
| 2026-04-30 15:17 | 22.62007 | 72.68001 | 7007 ft | 278 kts | 341° |
| 2026-04-30 15:18 | 22.71257 | 72.65301 | 5563 ft | 273 kts | 341° |
| 2026-04-30 15:19 | 22.76704 | 72.63709 | 4723 ft | 268 kts | 341° |